createdAt,value
2018-12-09T00:02:06.279Z,6.71
2018-12-09T00:04:40.936Z,6.63
2018-12-09T00:07:15.579Z,6.57
2018-12-09T00:09:48.904Z,6.52
2018-12-09T00:12:21.570Z,6.45
2018-12-09T00:14:54.144Z,6.42
2018-12-09T00:17:26.737Z,6.35
2018-12-09T00:19:59.361Z,6.25
2018-12-09T00:22:32.641Z,6.18
2018-12-09T00:25:05.540Z,6.11
2018-12-09T00:27:38.186Z,6.08
2018-12-09T00:30:11.765Z,5.99
2018-12-09T00:32:44.581Z,6.00
2018-12-09T00:35:17.166Z,5.96
2018-12-09T00:37:50.608Z,5.99
2018-12-09T00:40:23.154Z,5.92
2018-12-09T00:42:55.986Z,5.94
2018-12-09T00:45:29.222Z,5.93
2018-12-09T00:48:01.811Z,5.90
2018-12-09T00:50:34.398Z,5.85
2018-12-09T00:53:07.730Z,5.87
2018-12-09T00:55:41.084Z,5.87
2018-12-09T00:58:13.613Z,5.89
2018-12-09T01:00:46.270Z,5.88
2018-12-09T01:03:18.853Z,5.89
2018-12-09T01:05:51.659Z,6.00
2018-12-09T01:08:24.324Z,5.99
2018-12-09T01:10:57.591Z,5.94
2018-12-09T01:13:30.385Z,5.94
2018-12-09T01:16:03.001Z,5.90
2018-12-09T01:18:35.697Z,5.98
2018-12-09T01:21:08.886Z,6.03
2018-12-09T01:23:41.505Z,5.93
2018-12-09T01:26:14.800Z,6.00
2018-12-09T01:28:48.001Z,5.90
2018-12-09T01:31:21.783Z,5.90
2018-12-09T01:33:54.482Z,5.86
2018-12-09T01:36:27.068Z,5.96
2018-12-09T01:38:59.668Z,6.01
2018-12-09T01:41:32.503Z,6.07
2018-12-09T01:44:05.087Z,6.10
2018-12-09T01:46:38.368Z,6.13
2018-12-09T01:49:10.983Z,6.16
2018-12-09T01:51:43.527Z,6.21
2018-12-09T01:54:17.460Z,6.21
2018-12-09T01:56:51.093Z,6.24
2018-12-09T01:59:23.634Z,6.31
2018-12-09T02:01:56.766Z,6.34
2018-12-09T02:04:29.993Z,6.44
2018-12-09T02:07:03.075Z,6.34
2018-12-09T02:09:35.992Z,6.33
2018-12-09T02:12:10.405Z,6.36
2018-12-09T02:14:43.010Z,6.35
2018-12-09T02:17:15.600Z,6.32
2018-12-09T02:19:49.976Z,6.31
2018-12-09T02:22:22.597Z,6.36
2018-12-09T02:24:55.542Z,6.28
2018-12-09T02:27:28.996Z,6.28
2018-12-09T02:30:01.669Z,6.30
2018-12-09T02:32:34.539Z,6.34
2018-12-09T02:35:07.836Z,6.28
2018-12-09T02:37:40.684Z,6.28
2018-12-09T02:40:13.362Z,6.29
2018-12-09T02:42:46.521Z,6.28
2018-12-09T02:45:22.275Z,6.26
2018-12-09T02:47:54.833Z,6.26
2018-12-09T02:50:27.479Z,6.32
2018-12-09T02:53:01.595Z,6.38
2018-12-09T02:55:34.606Z,6.46
2018-12-09T02:58:07.305Z,6.51
2018-12-09T03:00:41.256Z,6.51
2018-12-09T03:03:13.852Z,6.43
2018-12-09T03:05:46.570Z,6.42
2018-12-09T03:08:19.215Z,6.43
2018-12-09T03:10:52.202Z,6.42
2018-12-09T03:13:25.205Z,6.45
2018-12-09T03:15:58.142Z,6.52
2018-12-09T03:18:31.747Z,6.57
2018-12-09T03:21:04.380Z,6.53
2018-12-09T03:23:37.044Z,6.57
2018-12-09T03:26:10.442Z,6.58
2018-12-09T03:28:43.066Z,6.53
2018-12-09T03:31:16.107Z,6.51
2018-12-09T03:33:49.438Z,6.57
2018-12-09T03:36:22.899Z,6.51
2018-12-09T03:38:55.937Z,6.46
2018-12-09T03:41:28.783Z,6.53
2018-12-09T03:44:01.399Z,6.54
2018-12-09T03:46:33.959Z,6.51
2018-12-09T03:49:07.036Z,6.60
2018-12-09T03:51:39.623Z,6.57
2018-12-09T03:54:12.851Z,6.58
2018-12-09T03:56:45.532Z,6.58
2018-12-09T03:59:18.812Z,6.60
2018-12-09T04:01:51.357Z,6.57
2018-12-09T04:04:23.899Z,6.51
2018-12-09T04:06:57.036Z,6.44
2018-12-09T04:09:31.678Z,6.44
2018-12-09T04:12:04.356Z,6.46
2018-12-09T04:14:37.525Z,6.41
2018-12-09T04:17:10.120Z,6.43
2018-12-09T04:19:43.756Z,6.47
2018-12-09T04:22:17.035Z,6.49
2018-12-09T04:24:51.281Z,6.57
2018-12-09T04:27:23.814Z,6.57
2018-12-09T04:29:56.543Z,6.63
2018-12-09T04:32:29.742Z,6.55
2018-12-09T04:35:02.696Z,6.67
2018-12-09T04:37:35.372Z,6.64
2018-12-09T04:40:08.806Z,6.65
2018-12-09T04:42:41.598Z,6.61
2018-12-09T04:45:14.405Z,6.62
2018-12-09T04:47:47.865Z,6.62
2018-12-09T04:50:21.488Z,6.62
2018-12-09T04:52:54.454Z,6.59
2018-12-09T04:55:27.971Z,6.49
2018-12-09T04:58:01.370Z,6.52
2018-12-09T05:00:45.522Z,6.49
2018-12-09T05:03:18.140Z,6.48
2018-12-09T05:05:50.911Z,6.46
2018-12-09T05:08:23.571Z,6.48
2018-12-09T05:10:56.887Z,6.49
2018-12-09T05:13:29.663Z,6.50
2018-12-09T05:16:03.293Z,6.55
2018-12-09T05:18:36.236Z,6.54
2018-12-09T05:21:09.961Z,6.49
2018-12-09T05:23:42.541Z,6.45
2018-12-09T05:26:15.124Z,6.41
2018-12-09T05:28:48.327Z,6.34
2018-12-09T05:31:21.503Z,6.34
2018-12-09T05:33:53.960Z,6.26
2018-12-09T05:36:26.619Z,6.12
2018-12-09T05:38:59.212Z,6.14
2018-12-09T05:41:31.899Z,6.02
2018-12-09T05:44:04.639Z,6.01
2018-12-09T05:46:37.667Z,5.95
2018-12-09T05:49:10.739Z,5.89
2018-12-09T05:51:43.358Z,5.94
2018-12-09T05:54:15.924Z,6.01
2018-12-09T05:56:48.715Z,6.14
2018-12-09T05:59:21.506Z,6.11
2018-12-09T06:02:04.092Z,6.15
2018-12-09T06:04:36.786Z,6.19
2018-12-09T06:07:09.346Z,6.21
2018-12-09T06:09:41.922Z,6.23
2018-12-09T06:12:14.862Z,6.24
2018-12-09T06:14:48.107Z,6.24
2018-12-09T06:17:20.706Z,6.27
2018-12-09T06:19:54.401Z,6.30
2018-12-09T06:22:28.087Z,6.34
2018-12-09T06:25:00.589Z,6.34
2018-12-09T06:27:33.104Z,6.33
2018-12-09T06:30:08.371Z,6.40
2018-12-09T06:32:42.979Z,6.40
2018-12-09T06:35:15.674Z,6.30
2018-12-09T06:37:48.465Z,6.22
2018-12-09T06:40:21.898Z,6.22
2018-12-09T06:42:56.366Z,6.20
2018-12-09T06:45:30.264Z,6.16
2018-12-09T06:48:06.055Z,6.05
2018-12-09T06:50:38.740Z,6.12
2018-12-09T06:53:11.979Z,6.12
2018-12-09T06:55:44.549Z,6.18
2018-12-09T06:58:17.145Z,6.22
2018-12-09T07:00:49.770Z,6.19
2018-12-09T07:03:22.388Z,6.29
2018-12-09T07:05:54.904Z,6.40
2018-12-09T07:08:27.626Z,6.36
2018-12-09T07:11:02.781Z,6.38
2018-12-09T07:13:35.381Z,6.35
2018-12-09T07:16:08.018Z,6.36
2018-12-09T07:18:40.926Z,6.40
2018-12-09T07:21:14.032Z,6.38
2018-12-09T07:23:46.583Z,6.39
2018-12-09T07:26:19.240Z,6.37
2018-12-09T07:28:51.944Z,6.36
2018-12-09T07:31:24.519Z,6.36
2018-12-09T07:33:58.659Z,6.35
2018-12-09T07:36:32.649Z,6.35
2018-12-09T07:39:06.697Z,6.36
2018-12-09T07:41:39.378Z,6.43
2018-12-09T07:44:12.200Z,6.37
2018-12-09T07:46:46.190Z,6.31
2018-12-09T07:49:19.400Z,6.25
2018-12-09T07:51:52.645Z,6.16
2018-12-09T07:54:25.247Z,6.29
2018-12-09T07:56:57.831Z,6.25
2018-12-09T07:59:31.258Z,6.29
2018-12-09T08:02:03.803Z,6.36
2018-12-09T08:04:36.426Z,6.45
2018-12-09T08:07:09.903Z,6.43
2018-12-09T08:09:42.492Z,6.43
2018-12-09T08:12:15.053Z,6.39
2018-12-09T08:14:47.642Z,6.39
2018-12-09T08:17:20.322Z,6.40
2018-12-09T08:19:53.819Z,6.41
2018-12-09T08:22:26.484Z,6.38
2018-12-09T08:25:04.593Z,6.38
2018-12-09T08:27:37.223Z,6.35
2018-12-09T08:30:13.672Z,6.30
2018-12-09T08:32:46.415Z,6.35
2018-12-09T08:35:20.239Z,6.28
2018-12-09T08:37:52.963Z,6.18
2018-12-09T08:40:25.581Z,6.10
2018-12-09T08:42:59.345Z,6.03
2018-12-09T08:45:33.881Z,5.94
2018-12-09T08:48:06.456Z,5.91
2018-12-09T08:50:39.134Z,5.85
2018-12-09T08:53:12.847Z,5.82
2018-12-09T08:55:45.462Z,5.80
2018-12-09T08:58:18.083Z,5.81
2018-12-09T09:00:50.764Z,5.79
2018-12-09T09:03:23.412Z,5.68
2018-12-09T09:05:56.074Z,5.67
2018-12-09T09:08:28.708Z,5.74
2018-12-09T09:11:01.334Z,5.68
2018-12-09T09:13:34.982Z,5.65
2018-12-09T09:16:07.683Z,5.68
2018-12-09T09:18:40.959Z,5.71
2018-12-09T09:21:13.577Z,5.76
2018-12-09T09:23:46.210Z,5.77
2018-12-09T09:26:19.859Z,5.78
2018-12-09T09:28:53.068Z,5.82
2018-12-09T09:31:25.733Z,5.80
2018-12-09T09:34:03.481Z,5.88
2018-12-09T09:36:36.109Z,5.88
2018-12-09T09:39:08.770Z,5.92
2018-12-09T09:41:42.364Z,6.07
2018-12-09T09:44:15.000Z,6.15
2018-12-09T09:46:47.669Z,6.21
2018-12-09T09:49:20.355Z,6.22
2018-12-09T09:51:53.901Z,6.24
2018-12-09T09:54:26.542Z,6.26
2018-12-09T09:56:59.286Z,6.22
2018-12-09T09:59:32.643Z,6.30
2018-12-09T10:02:05.281Z,6.30
2018-12-09T10:04:37.916Z,6.55
2018-12-09T10:07:11.873Z,7.07
2018-12-09T10:09:44.511Z,6.92
2018-12-09T10:12:17.764Z,6.70
2018-12-09T10:14:50.857Z,6.58
2018-12-09T10:17:23.523Z,6.55
2018-12-09T10:19:56.118Z,6.49
2018-12-09T10:22:29.518Z,6.41
2018-12-09T10:25:03.279Z,6.38
2018-12-09T10:27:36.036Z,6.33
2018-12-09T10:30:09.190Z,6.32
2018-12-09T10:32:41.856Z,6.25
2018-12-09T10:35:14.484Z,6.22
2018-12-09T10:37:47.270Z,6.16
2018-12-09T10:40:20.849Z,6.12
2018-12-09T10:42:53.513Z,6.09
2018-12-09T10:45:26.059Z,5.99
2018-12-09T10:47:58.797Z,6.01
2018-12-09T10:50:32.055Z,6.04
2018-12-09T10:53:04.751Z,6.04
2018-12-09T10:55:37.420Z,5.99
2018-12-09T10:58:10.938Z,5.99
2018-12-09T11:00:49.145Z,6.00
2018-12-09T11:03:21.931Z,6.01
2018-12-09T11:05:54.582Z,5.98
2018-12-09T11:08:27.386Z,6.02
2018-12-09T11:11:00.041Z,6.07
2018-12-09T11:13:32.753Z,6.04
2018-12-09T11:16:05.445Z,6.04
2018-12-09T11:18:39.237Z,6.24
2018-12-09T11:21:11.954Z,6.43
2018-12-09T11:23:44.605Z,6.81
2018-12-09T11:26:17.213Z,7.39
2018-12-09T11:28:49.949Z,7.15
2018-12-09T11:31:22.577Z,7.05
2018-12-09T11:33:55.164Z,6.91
2018-12-09T11:36:27.776Z,7.04
2018-12-09T11:39:01.014Z,6.90
2018-12-09T11:45:13.550Z,6.70
2018-12-09T11:47:46.214Z,6.56
2018-12-09T11:50:18.958Z,6.49
2018-12-09T11:52:52.284Z,6.53
2018-12-09T11:55:25.444Z,6.52
2018-12-09T11:57:58.124Z,6.55
2018-12-09T12:00:30.763Z,7.02
2018-12-09T12:03:03.452Z,7.10
2018-12-09T12:05:36.124Z,7.66
2018-12-09T12:08:08.727Z,7.58
2018-12-09T12:10:41.513Z,7.16
2018-12-09T12:13:14.101Z,7.16
2018-12-09T12:15:46.770Z,7.37
2018-12-09T12:18:20.038Z,7.88
2018-12-09T12:20:54.121Z,8.98
2018-12-09T12:23:27.515Z,8.87
2018-12-09T12:26:01.202Z,8.32
2018-12-09T12:28:34.149Z,7.74
2018-12-09T12:31:07.512Z,7.52
2018-12-09T12:33:40.895Z,7.20
2018-12-09T12:36:13.611Z,6.96
2018-12-09T12:38:46.481Z,6.83
2018-12-09T12:41:19.182Z,6.84
2018-12-09T12:43:51.971Z,6.83
2018-12-09T12:46:24.634Z,6.70
2018-12-09T12:48:57.308Z,6.76
2018-12-09T12:51:30.152Z,6.92
2018-12-09T12:54:05.435Z,7.04
2018-12-09T12:56:39.011Z,7.42
2018-12-09T12:59:12.436Z,7.57
2018-12-09T13:01:45.432Z,8.05
2018-12-09T13:04:18.617Z,7.75
2018-12-09T13:06:53.003Z,7.59
2018-12-09T13:09:25.724Z,7.26
2018-12-09T13:11:59.804Z,7.04
2018-12-09T13:14:33.205Z,6.98
2018-12-09T13:17:05.945Z,6.87
2018-12-09T13:19:38.586Z,6.87
2018-12-09T13:22:11.260Z,6.84
2018-12-09T13:24:43.992Z,6.79
2018-12-09T13:27:16.720Z,6.81
2018-12-09T13:29:51.454Z,6.83
2018-12-09T13:32:24.136Z,6.87
2018-12-09T13:34:56.775Z,6.74
2018-12-09T13:37:29.433Z,6.72
2018-12-09T13:40:02.170Z,6.84
2018-12-09T13:42:35.381Z,6.87
2018-12-09T13:45:09.887Z,6.89
2018-12-09T13:47:42.841Z,6.92
2018-12-09T13:50:16.337Z,6.85
2018-12-09T13:52:48.988Z,6.84
2018-12-09T13:55:23.620Z,6.82
2018-12-09T13:57:56.221Z,6.83
2018-12-09T14:00:28.933Z,6.82
2018-12-09T14:03:01.519Z,6.84
2018-12-09T14:05:34.174Z,6.82
2018-12-09T14:08:06.799Z,6.72
2018-12-09T14:10:39.528Z,6.66
2018-12-09T14:13:12.936Z,6.63
2018-12-09T14:15:45.817Z,6.59
2018-12-09T14:18:18.521Z,6.53
2018-12-09T14:20:51.220Z,6.48
2018-12-09T14:23:23.886Z,6.43
2018-12-09T14:25:56.782Z,6.44
2018-12-09T14:28:30.097Z,6.36
2018-12-09T14:31:03.551Z,6.34
2018-12-09T14:33:36.221Z,6.32
2018-12-09T14:36:10.311Z,6.28
2018-12-09T14:38:42.927Z,6.21
2018-12-09T14:41:16.259Z,6.18
2018-12-09T14:43:49.009Z,6.27
2018-12-09T14:46:21.648Z,6.28
2018-12-09T14:48:54.370Z,6.24
2018-12-09T14:51:27.454Z,6.33
2018-12-09T14:54:00.123Z,6.22
2018-12-09T14:56:33.548Z,6.19
2018-12-09T14:59:06.183Z,6.29
2018-12-09T15:01:38.934Z,6.30
2018-12-09T15:04:11.666Z,6.16
2018-12-09T15:06:44.601Z,6.15
2018-12-09T15:09:17.299Z,6.08
2018-12-09T15:11:50.816Z,5.99
2018-12-09T15:14:23.496Z,6.03
2018-12-09T15:16:56.194Z,6.01
2018-12-09T15:19:29.616Z,5.94
2018-12-09T15:22:02.317Z,5.89
2018-12-09T15:24:41.340Z,5.90
2018-12-09T15:27:11.733Z,5.90
2018-12-09T15:29:44.464Z,5.76
2018-12-09T15:32:17.194Z,5.78
2018-12-09T15:34:49.922Z,5.79
2018-12-09T15:37:22.634Z,5.82
2018-12-09T15:39:55.318Z,5.80
2018-12-09T15:42:33.964Z,5.96
2018-12-09T15:48:24.703Z,5.94
2018-12-09T15:51:13.010Z,5.96
2018-12-09T15:56:45.645Z,5.89
2018-12-09T16:02:24.058Z,5.90
2018-12-09T16:04:57.452Z,5.89
2018-12-09T16:07:30.764Z,5.80
2018-12-09T16:10:04.307Z,5.83
2018-12-09T16:12:36.971Z,5.75
2018-12-09T16:15:10.605Z,5.82
2018-12-09T16:17:43.176Z,5.83
2018-12-09T16:20:15.895Z,5.78
2018-12-09T16:22:49.479Z,5.79
2018-12-09T16:25:23.454Z,5.78
2018-12-09T16:27:58.770Z,5.65
2018-12-09T16:30:31.489Z,5.61
2018-12-09T16:33:06.232Z,5.53
2018-12-09T16:35:39.573Z,5.60
2018-12-09T16:38:16.736Z,5.60
2018-12-09T16:40:49.928Z,5.59
2018-12-09T16:43:23.824Z,5.48
2018-12-09T16:45:56.637Z,5.50
2018-12-09T16:48:29.367Z,5.37
2018-12-09T16:51:02.244Z,5.45
2018-12-09T16:53:34.943Z,5.55
2018-12-09T16:56:08.364Z,5.43
2018-12-09T16:58:42.156Z,5.50
2018-12-09T17:01:14.780Z,5.47
2018-12-09T17:03:47.478Z,5.54
2018-12-09T17:06:21.348Z,5.47
2018-12-09T17:08:53.974Z,5.46
2018-12-09T17:11:26.778Z,5.44
2018-12-09T17:14:02.771Z,5.51
2018-12-09T17:16:35.850Z,5.58
2018-12-09T17:22:31.549Z,5.73
2018-12-09T17:25:10.010Z,5.80
2018-12-09T17:27:45.537Z,5.86
2018-12-09T17:30:22.077Z,5.79
2018-12-09T17:32:56.931Z,5.79
2018-12-09T17:35:29.543Z,5.76
2018-12-09T17:38:04.093Z,5.74
2018-12-09T17:40:36.689Z,5.81
2018-12-09T17:43:10.388Z,5.86
2018-12-09T17:45:45.403Z,5.75
2018-12-09T17:48:19.424Z,5.81
2018-12-09T17:50:52.638Z,5.60
2018-12-09T17:53:25.397Z,4.99
2018-12-09T17:55:58.583Z,4.70
2018-12-09T17:58:32.096Z,4.53
2018-12-09T18:01:07.291Z,4.45
2018-12-09T18:03:40.746Z,4.44
2018-12-09T18:06:13.907Z,4.50
2018-12-09T18:08:46.875Z,4.66
2018-12-09T18:11:19.465Z,4.80
2018-12-09T18:13:53.640Z,4.86
2018-12-09T18:16:26.256Z,5.06
2018-12-09T18:18:59.512Z,5.16
2018-12-09T18:21:35.097Z,5.10
2018-12-09T18:24:14.161Z,5.08
2018-12-09T18:26:47.162Z,5.15
2018-12-09T18:29:25.277Z,5.15
2018-12-09T18:31:58.506Z,5.23
2018-12-09T18:34:32.197Z,5.25
2018-12-09T18:37:04.950Z,5.26
2018-12-09T18:39:38.067Z,5.31
2018-12-09T18:42:10.674Z,5.40
2018-12-09T18:44:43.485Z,5.35
2018-12-09T18:47:16.245Z,5.35
2018-12-09T18:49:49.319Z,5.37
2018-12-09T18:52:21.935Z,5.39
2018-12-09T18:54:54.675Z,5.38
2018-12-09T18:57:27.539Z,5.31
2018-12-09T19:00:00.764Z,5.30
2018-12-09T19:02:33.687Z,5.31
2018-12-09T19:05:06.459Z,5.31
2018-12-09T19:07:39.606Z,5.27
2018-12-09T19:10:12.407Z,5.20
2018-12-09T19:12:45.338Z,5.19
2018-12-09T19:15:18.192Z,5.21
2018-12-09T19:17:51.011Z,5.28
2018-12-09T19:20:23.654Z,5.18
2018-12-09T19:22:56.343Z,5.15
2018-12-09T19:25:29.004Z,5.09
2018-12-09T19:28:02.017Z,5.02
2018-12-09T19:30:34.869Z,4.97
2018-12-09T19:33:07.862Z,4.93
2018-12-09T19:35:40.979Z,4.92
2018-12-09T19:38:14.090Z,4.80
2018-12-09T19:40:46.789Z,4.71
2018-12-09T19:43:19.764Z,4.68
2018-12-09T19:45:52.700Z,4.61
2018-12-09T19:48:25.455Z,4.63
2018-12-09T19:50:58.364Z,4.54
2018-12-09T19:53:31.134Z,4.53
2018-12-09T19:56:04.473Z,4.48
2018-12-09T19:58:37.403Z,4.56
2018-12-09T20:01:10.100Z,4.54
2018-12-09T20:03:42.740Z,4.51
2018-12-09T20:06:15.420Z,4.49
2018-12-09T20:08:48.073Z,4.47
